sensor_id;sensor_type;location;lat;lon;timestamp;P1;durP1;ratioP1;P2;durP2;ratioP2
23060;SDS011;11698;47.690;9.132;2022-10-31T00:00:22;19.40;;;10.10;;
23060;SDS011;11698;47.690;9.132;2022-10-31T00:02:48;19.60;;;10.27;;
23060;SDS011;11698;47.690;9.132;2022-10-31T00:05:14;16.55;;;9.35;;
23060;SDS011;11698;47.690;9.132;2022-10-31T00:07:40;18.55;;;10.20;;
23060;SDS011;11698;47.690;9.132;2022-10-31T00:10:07;17.00;;;9.90;;
23060;SDS011;11698;47.690;9.132;2022-10-31T00:12:33;19.77;;;9.73;;
23060;SDS011;11698;47.690;9.132;2022-10-31T00:14:59;17.73;;;9.73;;
23060;SDS011;11698;47.690;9.132;2022-10-31T00:17:25;15.60;;;9.73;;
23060;SDS011;11698;47.690;9.132;2022-10-31T00:19:51;19.35;;;10.20;;
23060;SDS011;11698;47.690;9.132;2022-10-31T00:22:17;15.57;;;8.35;;
23060;SDS011;11698;47.690;9.132;2022-10-31T00:24:43;16.13;;;8.43;;
23060;SDS011;11698;47.690;9.132;2022-10-31T00:27:09;11.40;;;8.23;;
23060;SDS011;11698;47.690;9.132;2022-10-31T00:29:35;13.13;;;7.65;;
23060;SDS011;11698;47.690;9.132;2022-10-31T00:32:01;12.52;;;7.55;;
23060;SDS011;11698;47.690;9.132;2022-10-31T00:34:27;10.68;;;7.60;;
23060;SDS011;11698;47.690;9.132;2022-10-31T00:36:53;11.27;;;7.43;;
23060;SDS011;11698;47.690;9.132;2022-10-31T00:39:19;11.90;;;7.28;;
23060;SDS011;11698;47.690;9.132;2022-10-31T00:41:45;12.88;;;7.90;;
23060;SDS011;11698;47.690;9.132;2022-10-31T00:44:11;11.07;;;6.82;;
23060;SDS011;11698;47.690;9.132;2022-10-31T00:46:37;14.63;;;7.83;;
23060;SDS011;11698;47.690;9.132;2022-10-31T00:49:03;10.18;;;6.78;;
23060;SDS011;11698;47.690;9.132;2022-10-31T00:51:29;10.05;;;6.88;;
23060;SDS011;11698;47.690;9.132;2022-10-31T00:53:55;10.10;;;7.20;;
23060;SDS011;11698;47.690;9.132;2022-10-31T00:56:21;14.90;;;7.33;;
23060;SDS011;11698;47.690;9.132;2022-10-31T00:58:47;11.13;;;7.25;;
23060;SDS011;11698;47.690;9.132;2022-10-31T01:01:13;11.02;;;7.35;;
23060;SDS011;11698;47.690;9.132;2022-10-31T01:03:39;11.63;;;6.68;;
23060;SDS011;11698;47.690;9.132;2022-10-31T01:06:06;11.65;;;7.40;;
23060;SDS011;11698;47.690;9.132;2022-10-31T01:08:33;10.50;;;7.07;;
23060;SDS011;11698;47.690;9.132;2022-10-31T01:11:18;8.07;;;6.03;;
23060;SDS011;11698;47.690;9.132;2022-10-31T01:13:45;8.35;;;6.20;;
23060;SDS011;11698;47.690;9.132;2022-10-31T01:16:12;13.50;;;6.72;;
23060;SDS011;11698;47.690;9.132;2022-10-31T01:18:39;9.70;;;6.50;;
23060;SDS011;11698;47.690;9.132;2022-10-31T01:21:07;12.73;;;6.75;;
23060;SDS011;11698;47.690;9.132;2022-10-31T01:23:33;10.50;;;6.70;;
23060;SDS011;11698;47.690;9.132;2022-10-31T01:26:03;9.32;;;7.07;;
23060;SDS011;11698;47.690;9.132;2022-10-31T01:28:30;9.10;;;6.55;;
23060;SDS011;11698;47.690;9.132;2022-10-31T01:30:59;9.85;;;7.25;;
23060;SDS011;11698;47.690;9.132;2022-10-31T01:33:25;8.27;;;6.80;;
23060;SDS011;11698;47.690;9.132;2022-10-31T01:35:51;13.45;;;7.10;;
23060;SDS011;11698;47.690;9.132;2022-10-31T01:38:17;14.55;;;6.90;;
23060;SDS011;11698;47.690;9.132;2022-10-31T01:40:43;11.02;;;7.40;;
23060;SDS011;11698;47.690;9.132;2022-10-31T01:43:13;10.10;;;6.40;;
23060;SDS011;11698;47.690;9.132;2022-10-31T01:45:40;8.52;;;6.28;;
23060;SDS011;11698;47.690;9.132;2022-10-31T01:48:07;11.03;;;6.97;;
23060;SDS011;11698;47.690;9.132;2022-10-31T01:50:37;8.90;;;6.65;;
23060;SDS011;11698;47.690;9.132;2022-10-31T01:53:04;12.90;;;6.95;;
23060;SDS011;11698;47.690;9.132;2022-10-31T01:55:35;10.05;;;6.93;;
23060;SDS011;11698;47.690;9.132;2022-10-31T01:58:05;9.53;;;6.60;;
23060;SDS011;11698;47.690;9.132;2022-10-31T02:00:32;9.32;;;6.85;;
23060;SDS011;11698;47.690;9.132;2022-10-31T02:02:58;8.95;;;6.93;;
23060;SDS011;11698;47.690;9.132;2022-10-31T02:05:26;10.90;;;7.40;;
23060;SDS011;11698;47.690;9.132;2022-10-31T02:10:21;10.18;;;7.25;;
23060;SDS011;11698;47.690;9.132;2022-10-31T02:12:48;12.13;;;7.22;;
23060;SDS011;11698;47.690;9.132;2022-10-31T02:15:16;9.57;;;7.73;;
23060;SDS011;11698;47.690;9.132;2022-10-31T02:17:42;9.65;;;7.50;;
23060;SDS011;11698;47.690;9.132;2022-10-31T02:22:40;10.23;;;7.45;;
23060;SDS011;11698;47.690;9.132;2022-10-31T02:25:28;10.50;;;7.13;;
23060;SDS011;11698;47.690;9.132;2022-10-31T02:28:01;10.20;;;7.38;;
23060;SDS011;11698;47.690;9.132;2022-10-31T02:33:38;9.20;;;7.15;;
23060;SDS011;11698;47.690;9.132;2022-10-31T02:36:16;14.43;;;7.07;;
23060;SDS011;11698;47.690;9.132;2022-10-31T02:48:58;12.32;;;6.75;;
23060;SDS011;11698;47.690;9.132;2022-10-31T02:51:26;12.20;;;6.68;;
23060;SDS011;11698;47.690;9.132;2022-10-31T02:53:52;9.65;;;5.72;;
23060;SDS011;11698;47.690;9.132;2022-10-31T02:56:19;12.20;;;6.40;;
23060;SDS011;11698;47.690;9.132;2022-10-31T02:58:47;11.27;;;6.15;;
23060;SDS011;11698;47.690;9.132;2022-10-31T03:09:52;10.13;;;6.47;;
23060;SDS011;11698;47.690;9.132;2022-10-31T03:14:31;8.47;;;6.10;;
23060;SDS011;11698;47.690;9.132;2022-10-31T03:16:59;9.65;;;5.68;;
23060;SDS011;11698;47.690;9.132;2022-10-31T03:19:33;11.02;;;5.78;;
23060;SDS011;11698;47.690;9.132;2022-10-31T03:22:07;9.02;;;5.60;;
23060;SDS011;11698;47.690;9.132;2022-10-31T03:24:36;9.95;;;6.10;;
23060;SDS011;11698;47.690;9.132;2022-10-31T03:27:12;10.88;;;5.45;;
23060;SDS011;11698;47.690;9.132;2022-10-31T03:29:40;11.23;;;5.67;;
23060;SDS011;11698;47.690;9.132;2022-10-31T03:32:08;8.93;;;5.57;;
23060;SDS011;11698;47.690;9.132;2022-10-31T03:34:36;11.27;;;6.23;;
23060;SDS011;11698;47.690;9.132;2022-10-31T03:37:03;11.82;;;6.30;;
23060;SDS011;11698;47.690;9.132;2022-10-31T03:39:30;14.27;;;6.67;;
23060;SDS011;11698;47.690;9.132;2022-10-31T03:42:20;12.25;;;6.85;;
23060;SDS011;11698;47.690;9.132;2022-10-31T03:44:49;9.77;;;5.95;;
23060;SDS011;11698;47.690;9.132;2022-10-31T03:47:17;10.57;;;6.30;;
23060;SDS011;11698;47.690;9.132;2022-10-31T03:49:43;12.80;;;5.93;;
23060;SDS011;11698;47.690;9.132;2022-10-31T03:59:30;15.80;;;5.47;;
23060;SDS011;11698;47.690;9.132;2022-10-31T04:01:58;8.88;;;5.35;;
23060;SDS011;11698;47.690;9.132;2022-10-31T04:04:26;9.47;;;5.00;;
23060;SDS011;11698;47.690;9.132;2022-10-31T04:06:53;11.02;;;5.15;;
23060;SDS011;11698;47.690;9.132;2022-10-31T04:09:20;9.40;;;5.65;;
23060;SDS011;11698;47.690;9.132;2022-10-31T04:11:48;15.95;;;5.93;;
23060;SDS011;11698;47.690;9.132;2022-10-31T04:14:15;8.48;;;5.47;;
23060;SDS011;11698;47.690;9.132;2022-10-31T04:16:42;6.57;;;4.95;;
23060;SDS011;11698;47.690;9.132;2022-10-31T04:19:09;8.13;;;4.90;;
23060;SDS011;11698;47.690;9.132;2022-10-31T04:21:35;14.65;;;5.15;;
23060;SDS011;11698;47.690;9.132;2022-10-31T04:24:01;12.20;;;4.85;;
23060;SDS011;11698;47.690;9.132;2022-10-31T04:26:27;7.33;;;4.90;;
23060;SDS011;11698;47.690;9.132;2022-10-31T04:28:53;9.35;;;4.93;;
23060;SDS011;11698;47.690;9.132;2022-10-31T04:31:19;18.00;;;5.13;;
23060;SDS011;11698;47.690;9.132;2022-10-31T04:33:45;7.93;;;5.40;;
23060;SDS011;11698;47.690;9.132;2022-10-31T04:36:11;11.60;;;5.43;;
23060;SDS011;11698;47.690;9.132;2022-10-31T04:38:37;12.43;;;4.83;;
23060;SDS011;11698;47.690;9.132;2022-10-31T04:41:03;9.57;;;5.25;;
23060;SDS011;11698;47.690;9.132;2022-10-31T04:43:29;12.57;;;5.65;;
23060;SDS011;11698;47.690;9.132;2022-10-31T04:45:55;10.10;;;4.45;;
23060;SDS011;11698;47.690;9.132;2022-10-31T04:48:21;16.15;;;5.00;;
23060;SDS011;11698;47.690;9.132;2022-10-31T04:50:47;11.73;;;4.93;;
23060;SDS011;11698;47.690;9.132;2022-10-31T04:53:13;9.32;;;4.78;;
23060;SDS011;11698;47.690;9.132;2022-10-31T04:55:39;13.80;;;5.10;;
23060;SDS011;11698;47.690;9.132;2022-10-31T04:58:05;13.05;;;5.25;;
23060;SDS011;11698;47.690;9.132;2022-10-31T05:00:31;11.18;;;5.20;;
23060;SDS011;11698;47.690;9.132;2022-10-31T05:02:57;13.27;;;5.15;;
23060;SDS011;11698;47.690;9.132;2022-10-31T05:05:25;13.70;;;5.85;;
23060;SDS011;11698;47.690;9.132;2022-10-31T05:07:51;11.82;;;5.43;;
23060;SDS011;11698;47.690;9.132;2022-10-31T05:10:18;11.25;;;5.63;;
23060;SDS011;11698;47.690;9.132;2022-10-31T05:12:45;7.70;;;4.60;;
23060;SDS011;11698;47.690;9.132;2022-10-31T05:15:12;12.80;;;5.57;;
23060;SDS011;11698;47.690;9.132;2022-10-31T05:17:38;13.07;;;5.50;;
23060;SDS011;11698;47.690;9.132;2022-10-31T05:20:04;12.18;;;5.32;;
23060;SDS011;11698;47.690;9.132;2022-10-31T05:22:30;12.20;;;5.50;;
23060;SDS011;11698;47.690;9.132;2022-10-31T05:24:56;17.60;;;5.30;;
23060;SDS011;11698;47.690;9.132;2022-10-31T05:27:22;8.55;;;5.13;;
23060;SDS011;11698;47.690;9.132;2022-10-31T05:29:48;9.13;;;5.75;;
23060;SDS011;11698;47.690;9.132;2022-10-31T05:32:14;9.27;;;5.60;;
23060;SDS011;11698;47.690;9.132;2022-10-31T05:34:40;13.70;;;5.57;;
23060;SDS011;11698;47.690;9.132;2022-10-31T05:37:06;8.27;;;5.88;;
23060;SDS011;11698;47.690;9.132;2022-10-31T05:39:32;9.60;;;5.80;;
23060;SDS011;11698;47.690;9.132;2022-10-31T05:41:58;10.68;;;5.85;;
23060;SDS011;11698;47.690;9.132;2022-10-31T05:44:24;9.98;;;5.93;;
23060;SDS011;11698;47.690;9.132;2022-10-31T05:46:50;11.27;;;5.97;;
23060;SDS011;11698;47.690;9.132;2022-10-31T05:49:16;9.73;;;6.47;;
23060;SDS011;11698;47.690;9.132;2022-10-31T05:51:42;8.80;;;6.07;;
23060;SDS011;11698;47.690;9.132;2022-10-31T05:54:08;10.55;;;5.47;;
23060;SDS011;11698;47.690;9.132;2022-10-31T05:56:34;6.10;;;5.50;;
23060;SDS011;11698;47.690;9.132;2022-10-31T05:59:00;7.53;;;5.72;;
23060;SDS011;11698;47.690;9.132;2022-10-31T06:01:26;8.32;;;5.88;;
23060;SDS011;11698;47.690;9.132;2022-10-31T06:03:52;9.45;;;5.80;;
23060;SDS011;11698;47.690;9.132;2022-10-31T06:06:19;7.78;;;5.88;;
23060;SDS011;11698;47.690;9.132;2022-10-31T06:08:45;7.95;;;6.40;;
23060;SDS011;11698;47.690;9.132;2022-10-31T06:11:11;7.17;;;6.23;;
23060;SDS011;11698;47.690;9.132;2022-10-31T06:13:36;7.88;;;6.05;;
23060;SDS011;11698;47.690;9.132;2022-10-31T06:16:03;11.45;;;6.22;;
23060;SDS011;11698;47.690;9.132;2022-10-31T06:18:29;9.68;;;5.63;;
23060;SDS011;11698;47.690;9.132;2022-10-31T06:20:55;5.88;;;5.00;;
23060;SDS011;11698;47.690;9.132;2022-10-31T06:23:21;7.70;;;5.90;;
23060;SDS011;11698;47.690;9.132;2022-10-31T06:25:50;9.15;;;5.20;;
23060;SDS011;11698;47.690;9.132;2022-10-31T06:28:16;6.57;;;5.80;;
23060;SDS011;11698;47.690;9.132;2022-10-31T06:30:42;7.60;;;5.60;;
23060;SDS011;11698;47.690;9.132;2022-10-31T06:33:08;8.23;;;5.72;;
23060;SDS011;11698;47.690;9.132;2022-10-31T06:35:34;7.20;;;5.75;;
23060;SDS011;11698;47.690;9.132;2022-10-31T06:38:00;7.18;;;5.15;;
23060;SDS011;11698;47.690;9.132;2022-10-31T06:40:26;5.77;;;5.17;;
23060;SDS011;11698;47.690;9.132;2022-10-31T06:42:59;6.75;;;5.57;;
23060;SDS011;11698;47.690;9.132;2022-10-31T06:45:25;6.70;;;5.55;;
23060;SDS011;11698;47.690;9.132;2022-10-31T06:47:52;8.88;;;6.28;;
23060;SDS011;11698;47.690;9.132;2022-10-31T06:50:19;5.93;;;5.18;;
23060;SDS011;11698;47.690;9.132;2022-10-31T06:52:55;7.05;;;5.53;;
23060;SDS011;11698;47.690;9.132;2022-10-31T06:55:21;6.28;;;5.15;;
23060;SDS011;11698;47.690;9.132;2022-10-31T06:57:55;6.35;;;4.65;;
23060;SDS011;11698;47.690;9.132;2022-10-31T07:00:22;7.60;;;5.20;;
23060;SDS011;11698;47.690;9.132;2022-10-31T07:05:20;9.98;;;5.60;;
23060;SDS011;11698;47.690;9.132;2022-10-31T07:07:46;7.90;;;5.37;;
23060;SDS011;11698;47.690;9.132;2022-10-31T07:10:12;9.10;;;5.85;;
23060;SDS011;11698;47.690;9.132;2022-10-31T07:12:38;7.55;;;5.60;;
23060;SDS011;11698;47.690;9.132;2022-10-31T07:15:04;8.95;;;5.53;;
23060;SDS011;11698;47.690;9.132;2022-10-31T07:17:30;7.95;;;5.75;;
23060;SDS011;11698;47.690;9.132;2022-10-31T07:19:56;8.77;;;6.10;;
23060;SDS011;11698;47.690;9.132;2022-10-31T07:22:22;8.10;;;5.80;;
23060;SDS011;11698;47.690;9.132;2022-10-31T07:24:48;8.88;;;5.82;;
23060;SDS011;11698;47.690;9.132;2022-10-31T07:27:14;7.43;;;5.60;;
23060;SDS011;11698;47.690;9.132;2022-10-31T07:29:40;7.72;;;5.35;;
23060;SDS011;11698;47.690;9.132;2022-10-31T07:32:06;13.87;;;5.17;;
23060;SDS011;11698;47.690;9.132;2022-10-31T07:34:32;7.97;;;5.00;;
23060;SDS011;11698;47.690;9.132;2022-10-31T07:36:58;9.52;;;5.03;;
23060;SDS011;11698;47.690;9.132;2022-10-31T07:39:24;8.07;;;5.77;;
23060;SDS011;11698;47.690;9.132;2022-10-31T07:41:50;7.43;;;5.63;;
23060;SDS011;11698;47.690;9.132;2022-10-31T07:44:16;8.25;;;5.50;;
23060;SDS011;11698;47.690;9.132;2022-10-31T07:46:42;8.30;;;5.57;;
23060;SDS011;11698;47.690;9.132;2022-10-31T07:49:08;6.85;;;5.68;;
23060;SDS011;11698;47.690;9.132;2022-10-31T07:51:34;8.45;;;5.70;;
23060;SDS011;11698;47.690;9.132;2022-10-31T07:54:00;11.07;;;5.82;;
23060;SDS011;11698;47.690;9.132;2022-10-31T07:56:26;7.53;;;5.60;;
23060;SDS011;11698;47.690;9.132;2022-10-31T07:58:52;9.00;;;5.93;;
23060;SDS011;11698;47.690;9.132;2022-10-31T08:01:18;8.02;;;6.22;;
23060;SDS011;11698;47.690;9.132;2022-10-31T08:03:44;8.13;;;4.95;;
23060;SDS011;11698;47.690;9.132;2022-10-31T08:06:10;7.10;;;5.90;;
23060;SDS011;11698;47.690;9.132;2022-10-31T08:08:36;9.40;;;5.10;;
23060;SDS011;11698;47.690;9.132;2022-10-31T08:11:02;6.47;;;5.07;;
23060;SDS011;11698;47.690;9.132;2022-10-31T08:13:28;7.82;;;5.22;;
23060;SDS011;11698;47.690;9.132;2022-10-31T08:15:54;5.83;;;5.10;;
23060;SDS011;11698;47.690;9.132;2022-10-31T08:18:20;5.83;;;4.93;;
23060;SDS011;11698;47.690;9.132;2022-10-31T08:20:48;6.78;;;5.13;;
23060;SDS011;11698;47.690;9.132;2022-10-31T08:23:15;6.20;;;5.07;;
23060;SDS011;11698;47.690;9.132;2022-10-31T08:25:41;6.03;;;5.10;;
23060;SDS011;11698;47.690;9.132;2022-10-31T08:28:08;6.72;;;5.40;;
23060;SDS011;11698;47.690;9.132;2022-10-31T08:30:35;8.27;;;5.57;;
23060;SDS011;11698;47.690;9.132;2022-10-31T08:33:05;5.87;;;5.13;;
23060;SDS011;11698;47.690;9.132;2022-10-31T08:35:34;6.47;;;5.70;;
23060;SDS011;11698;47.690;9.132;2022-10-31T08:38:00;7.65;;;5.00;;
23060;SDS011;11698;47.690;9.132;2022-10-31T08:40:27;5.97;;;5.25;;
23060;SDS011;11698;47.690;9.132;2022-10-31T08:43:03;6.95;;;5.50;;
23060;SDS011;11698;47.690;9.132;2022-10-31T08:45:30;7.88;;;5.80;;
23060;SDS011;11698;47.690;9.132;2022-10-31T08:47:57;8.30;;;5.70;;
23060;SDS011;11698;47.690;9.132;2022-10-31T08:50:23;9.23;;;6.03;;
23060;SDS011;11698;47.690;9.132;2022-10-31T08:52:49;6.70;;;5.50;;
23060;SDS011;11698;47.690;9.132;2022-10-31T08:55:15;9.30;;;6.10;;
23060;SDS011;11698;47.690;9.132;2022-10-31T08:57:41;7.82;;;6.07;;
23060;SDS011;11698;47.690;9.132;2022-10-31T09:00:07;9.32;;;5.57;;
23060;SDS011;11698;47.690;9.132;2022-10-31T09:02:34;7.70;;;5.88;;
23060;SDS011;11698;47.690;9.132;2022-10-31T09:05:00;10.53;;;6.47;;
23060;SDS011;11698;47.690;9.132;2022-10-31T09:07:26;6.95;;;5.72;;
23060;SDS011;11698;47.690;9.132;2022-10-31T09:09:52;11.65;;;6.68;;
23060;SDS011;11698;47.690;9.132;2022-10-31T09:12:18;8.65;;;6.38;;
23060;SDS011;11698;47.690;9.132;2022-10-31T09:14:44;9.07;;;6.43;;
23060;SDS011;11698;47.690;9.132;2022-10-31T09:17:10;9.90;;;7.05;;
23060;SDS011;11698;47.690;9.132;2022-10-31T09:19:36;10.65;;;6.82;;
23060;SDS011;11698;47.690;9.132;2022-10-31T09:22:02;12.73;;;7.57;;
23060;SDS011;11698;47.690;9.132;2022-10-31T09:24:28;11.05;;;7.28;;
23060;SDS011;11698;47.690;9.132;2022-10-31T09:26:54;14.15;;;7.32;;
23060;SDS011;11698;47.690;9.132;2022-10-31T09:29:20;13.45;;;7.90;;
23060;SDS011;11698;47.690;9.132;2022-10-31T09:31:46;14.37;;;8.03;;
23060;SDS011;11698;47.690;9.132;2022-10-31T09:34:12;12.23;;;8.05;;
23060;SDS011;11698;47.690;9.132;2022-10-31T09:36:38;14.75;;;8.57;;
23060;SDS011;11698;47.690;9.132;2022-10-31T09:39:04;11.20;;;7.53;;
23060;SDS011;11698;47.690;9.132;2022-10-31T09:46:25;14.85;;;8.50;;
23060;SDS011;11698;47.690;9.132;2022-10-31T09:49:19;12.68;;;7.82;;
23060;SDS011;11698;47.690;9.132;2022-10-31T09:51:52;11.05;;;8.05;;
23060;SDS011;11698;47.690;9.132;2022-10-31T09:56:46;12.57;;;8.00;;
23060;SDS011;11698;47.690;9.132;2022-10-31T09:59:18;12.97;;;8.27;;
23060;SDS011;11698;47.690;9.132;2022-10-31T10:01:47;11.57;;;8.50;;
23060;SDS011;11698;47.690;9.132;2022-10-31T10:06:43;13.27;;;8.85;;
23060;SDS011;11698;47.690;9.132;2022-10-31T10:09:10;12.38;;;8.73;;
23060;SDS011;11698;47.690;9.132;2022-10-31T10:22:16;15.50;;;9.05;;
23060;SDS011;11698;47.690;9.132;2022-10-31T10:29:44;13.50;;;9.05;;
23060;SDS011;11698;47.690;9.132;2022-10-31T10:32:19;11.75;;;8.50;;
23060;SDS011;11698;47.690;9.132;2022-10-31T10:34:49;11.75;;;8.88;;
23060;SDS011;11698;47.690;9.132;2022-10-31T10:39:53;12.82;;;8.73;;
23060;SDS011;11698;47.690;9.132;2022-10-31T10:42:20;12.38;;;8.10;;
23060;SDS011;11698;47.690;9.132;2022-10-31T10:45:18;16.17;;;8.82;;
23060;SDS011;11698;47.690;9.132;2022-10-31T10:48:10;14.55;;;9.40;;
23060;SDS011;11698;47.690;9.132;2022-10-31T10:50:41;14.27;;;9.70;;
23060;SDS011;11698;47.690;9.132;2022-10-31T10:58:18;12.77;;;8.90;;
23060;SDS011;11698;47.690;9.132;2022-10-31T11:00:46;15.90;;;9.70;;
23060;SDS011;11698;47.690;9.132;2022-10-31T11:03:14;15.85;;;9.85;;
23060;SDS011;11698;47.690;9.132;2022-10-31T11:05:54;14.77;;;10.00;;
23060;SDS011;11698;47.690;9.132;2022-10-31T11:08:28;15.40;;;9.73;;
23060;SDS011;11698;47.690;9.132;2022-10-31T11:10:59;15.70;;;9.63;;
23060;SDS011;11698;47.690;9.132;2022-10-31T11:13:26;14.57;;;9.70;;
23060;SDS011;11698;47.690;9.132;2022-10-31T11:18:25;14.10;;;10.20;;
23060;SDS011;11698;47.690;9.132;2022-10-31T11:20:53;15.02;;;10.68;;
23060;SDS011;11698;47.690;9.132;2022-10-31T11:23:21;15.05;;;10.02;;
23060;SDS011;11698;47.690;9.132;2022-10-31T11:25:48;15.38;;;10.13;;
23060;SDS011;11698;47.690;9.132;2022-10-31T11:28:15;16.33;;;10.07;;
23060;SDS011;11698;47.690;9.132;2022-10-31T11:30:49;13.52;;;10.13;;
23060;SDS011;11698;47.690;9.132;2022-10-31T11:33:27;14.80;;;10.43;;
23060;SDS011;11698;47.690;9.132;2022-10-31T11:35:54;20.15;;;11.30;;
23060;SDS011;11698;47.690;9.132;2022-10-31T11:38:21;16.15;;;10.43;;
23060;SDS011;11698;47.690;9.132;2022-10-31T11:40:56;15.80;;;11.23;;
23060;SDS011;11698;47.690;9.132;2022-10-31T11:43:23;15.60;;;10.93;;
23060;SDS011;11698;47.690;9.132;2022-10-31T11:45:49;15.77;;;10.73;;
23060;SDS011;11698;47.690;9.132;2022-10-31T11:48:17;16.35;;;10.77;;
23060;SDS011;11698;47.690;9.132;2022-10-31T11:50:47;14.98;;;10.27;;
23060;SDS011;11698;47.690;9.132;2022-10-31T11:53:25;15.43;;;10.38;;
23060;SDS011;11698;47.690;9.132;2022-10-31T11:56:03;18.48;;;10.82;;
23060;SDS011;11698;47.690;9.132;2022-10-31T11:58:29;15.63;;;10.27;;
23060;SDS011;11698;47.690;9.132;2022-10-31T12:00:56;17.37;;;11.00;;
23060;SDS011;11698;47.690;9.132;2022-10-31T12:06:06;14.70;;;10.07;;
23060;SDS011;11698;47.690;9.132;2022-10-31T12:08:34;15.38;;;10.57;;
23060;SDS011;11698;47.690;9.132;2022-10-31T12:11:10;13.60;;;10.20;;
23060;SDS011;11698;47.690;9.132;2022-10-31T12:13:37;14.90;;;10.00;;
23060;SDS011;11698;47.690;9.132;2022-10-31T12:16:09;17.35;;;11.00;;
23060;SDS011;11698;47.690;9.132;2022-10-31T12:18:40;18.30;;;11.27;;
23060;SDS011;11698;47.690;9.132;2022-10-31T12:21:11;15.32;;;10.60;;
23060;SDS011;11698;47.690;9.132;2022-10-31T12:26:21;15.93;;;10.27;;
23060;SDS011;11698;47.690;9.132;2022-10-31T12:29:52;18.30;;;11.07;;
23060;SDS011;11698;47.690;9.132;2022-10-31T12:31:50;16.25;;;11.10;;
23060;SDS011;11698;47.690;9.132;2022-10-31T12:37:07;15.93;;;10.73;;
23060;SDS011;11698;47.690;9.132;2022-10-31T12:42:39;12.55;;;8.93;;
23060;SDS011;11698;47.690;9.132;2022-10-31T12:48:03;11.70;;;8.60;;
23060;SDS011;11698;47.690;9.132;2022-10-31T12:50:35;12.73;;;8.80;;
23060;SDS011;11698;47.690;9.132;2022-10-31T12:53:15;11.40;;;8.82;;
23060;SDS011;11698;47.690;9.132;2022-10-31T12:55:53;12.80;;;8.53;;
23060;SDS011;11698;47.690;9.132;2022-10-31T13:00:58;10.87;;;8.13;;
23060;SDS011;11698;47.690;9.132;2022-10-31T13:06:20;9.70;;;7.53;;
23060;SDS011;11698;47.690;9.132;2022-10-31T13:08:52;9.87;;;7.90;;
23060;SDS011;11698;47.690;9.132;2022-10-31T13:11:21;10.53;;;7.80;;
23060;SDS011;11698;47.690;9.132;2022-10-31T13:13:52;11.57;;;7.67;;
23060;SDS011;11698;47.690;9.132;2022-10-31T13:16:20;9.90;;;7.20;;
23060;SDS011;11698;47.690;9.132;2022-10-31T13:18:49;8.25;;;6.60;;
23060;SDS011;11698;47.690;9.132;2022-10-31T13:21:23;9.93;;;7.20;;
23060;SDS011;11698;47.690;9.132;2022-10-31T13:23:50;8.70;;;6.95;;
23060;SDS011;11698;47.690;9.132;2022-10-31T13:26:21;8.95;;;6.95;;
23060;SDS011;11698;47.690;9.132;2022-10-31T13:29:03;9.50;;;7.80;;
23060;SDS011;11698;47.690;9.132;2022-10-31T13:31:31;9.80;;;7.93;;
23060;SDS011;11698;47.690;9.132;2022-10-31T13:33:58;11.45;;;7.97;;
23060;SDS011;11698;47.690;9.132;2022-10-31T13:36:31;11.25;;;7.65;;
23060;SDS011;11698;47.690;9.132;2022-10-31T13:41:40;10.75;;;7.65;;
23060;SDS011;11698;47.690;9.132;2022-10-31T13:44:21;10.52;;;7.75;;
23060;SDS011;11698;47.690;9.132;2022-10-31T13:46:52;10.98;;;7.90;;
23060;SDS011;11698;47.690;9.132;2022-10-31T13:54:35;9.98;;;7.93;;
23060;SDS011;11698;47.690;9.132;2022-10-31T13:57:01;9.63;;;7.65;;
23060;SDS011;11698;47.690;9.132;2022-10-31T13:59:28;11.90;;;8.40;;
23060;SDS011;11698;47.690;9.132;2022-10-31T14:01:56;11.55;;;8.35;;
23060;SDS011;11698;47.690;9.132;2022-10-31T14:04:25;8.93;;;7.45;;
23060;SDS011;11698;47.690;9.132;2022-10-31T14:06:53;10.82;;;8.13;;
23060;SDS011;11698;47.690;9.132;2022-10-31T14:11:48;10.33;;;8.20;;
23060;SDS011;11698;47.690;9.132;2022-10-31T14:14:15;12.35;;;8.85;;
23060;SDS011;11698;47.690;9.132;2022-10-31T14:22:48;13.63;;;9.90;;
23060;SDS011;11698;47.690;9.132;2022-10-31T14:25:28;15.87;;;10.77;;
23060;SDS011;11698;47.690;9.132;2022-10-31T14:27:54;14.32;;;10.65;;
23060;SDS011;11698;47.690;9.132;2022-10-31T14:30:22;16.17;;;10.77;;
23060;SDS011;11698;47.690;9.132;2022-10-31T14:32:52;15.40;;;10.55;;
23060;SDS011;11698;47.690;9.132;2022-10-31T14:35:19;18.15;;;10.95;;
23060;SDS011;11698;47.690;9.132;2022-10-31T14:40:33;16.95;;;11.15;;
23060;SDS011;11698;47.690;9.132;2022-10-31T14:45:48;15.57;;;11.23;;
23060;SDS011;11698;47.690;9.132;2022-10-31T14:50:48;18.80;;;12.20;;
23060;SDS011;11698;47.690;9.132;2022-10-31T14:53:22;17.70;;;12.00;;
23060;SDS011;11698;47.690;9.132;2022-10-31T14:55:49;16.77;;;11.37;;
23060;SDS011;11698;47.690;9.132;2022-10-31T14:58:18;20.17;;;12.85;;
23060;SDS011;11698;47.690;9.132;2022-10-31T15:00:46;20.55;;;12.63;;
23060;SDS011;11698;47.690;9.132;2022-10-31T15:03:14;19.42;;;11.88;;
23060;SDS011;11698;47.690;9.132;2022-10-31T15:05:46;19.38;;;13.27;;
23060;SDS011;11698;47.690;9.132;2022-10-31T15:08:13;18.98;;;13.07;;
23060;SDS011;11698;47.690;9.132;2022-10-31T15:10:44;22.95;;;14.05;;
23060;SDS011;11698;47.690;9.132;2022-10-31T15:13:20;25.45;;;15.35;;
23060;SDS011;11698;47.690;9.132;2022-10-31T15:15:49;22.95;;;14.73;;
23060;SDS011;11698;47.690;9.132;2022-10-31T15:18:17;22.83;;;14.10;;
23060;SDS011;11698;47.690;9.132;2022-10-31T15:20:45;27.25;;;14.98;;
23060;SDS011;11698;47.690;9.132;2022-10-31T15:23:14;23.90;;;14.30;;
23060;SDS011;11698;47.690;9.132;2022-10-31T15:25:41;22.30;;;13.68;;
23060;SDS011;11698;47.690;9.132;2022-10-31T15:28:15;23.65;;;14.27;;
23060;SDS011;11698;47.690;9.132;2022-10-31T15:30:49;24.98;;;14.68;;
23060;SDS011;11698;47.690;9.132;2022-10-31T15:33:25;23.30;;;14.70;;
23060;SDS011;11698;47.690;9.132;2022-10-31T15:35:58;22.17;;;13.98;;
23060;SDS011;11698;47.690;9.132;2022-10-31T15:38:24;21.42;;;13.73;;
23060;SDS011;11698;47.690;9.132;2022-10-31T15:40:51;19.52;;;13.40;;
23060;SDS011;11698;47.690;9.132;2022-10-31T15:43:18;20.67;;;12.73;;
23060;SDS011;11698;47.690;9.132;2022-10-31T15:45:45;20.38;;;12.70;;
23060;SDS011;11698;47.690;9.132;2022-10-31T15:48:23;19.00;;;11.77;;
23060;SDS011;11698;47.690;9.132;2022-10-31T15:50:54;17.00;;;11.63;;
23060;SDS011;11698;47.690;9.132;2022-10-31T15:53:22;15.87;;;11.13;;
23060;SDS011;11698;47.690;9.132;2022-10-31T15:55:57;17.73;;;11.80;;
23060;SDS011;11698;47.690;9.132;2022-10-31T15:58:23;23.83;;;10.97;;
23060;SDS011;11698;47.690;9.132;2022-10-31T16:01:00;21.60;;;10.57;;
23060;SDS011;11698;47.690;9.132;2022-10-31T16:03:28;18.45;;;10.85;;
23060;SDS011;11698;47.690;9.132;2022-10-31T16:05:55;19.55;;;10.32;;
23060;SDS011;11698;47.690;9.132;2022-10-31T16:10:50;17.60;;;10.25;;
23060;SDS011;11698;47.690;9.132;2022-10-31T16:13:16;16.08;;;10.60;;
23060;SDS011;11698;47.690;9.132;2022-10-31T16:15:49;17.55;;;10.20;;
23060;SDS011;11698;47.690;9.132;2022-10-31T16:18:17;17.17;;;10.03;;
23060;SDS011;11698;47.690;9.132;2022-10-31T16:20:47;19.58;;;10.13;;
23060;SDS011;11698;47.690;9.132;2022-10-31T16:23:16;17.43;;;10.20;;
23060;SDS011;11698;47.690;9.132;2022-10-31T16:25:43;16.10;;;10.23;;
23060;SDS011;11698;47.690;9.132;2022-10-31T16:28:16;12.98;;;9.68;;
23060;SDS011;11698;47.690;9.132;2022-10-31T16:30:43;17.45;;;9.77;;
23060;SDS011;11698;47.690;9.132;2022-10-31T16:38:50;13.27;;;8.82;;
23060;SDS011;11698;47.690;9.132;2022-10-31T16:41:16;12.73;;;8.77;;
23060;SDS011;11698;47.690;9.132;2022-10-31T16:43:42;12.25;;;8.60;;
23060;SDS011;11698;47.690;9.132;2022-10-31T16:46:10;10.50;;;7.95;;
23060;SDS011;11698;47.690;9.132;2022-10-31T16:48:38;14.02;;;8.20;;